Time;durP1;ratioP1;P1;durP2;ratioP2;P2;SDS_P1;SDS_P2;PMS_P1;PMS_P2;Temp;Humidity;BMP_temperature;BMP_pressure;BME280_temperature;BME280_humidity;BME280_pressure;Samples;Min_cycle;Max_cycle;Signal;HPM_P1;HPM_P2
2022/06/03 00:01:42;;;;;;;3.70;3.40;;;;;;;14.57;83.26;99740.27;1772727;80;20931;-75
2022/06/03 00:04:45;;;;;;;3.37;3.05;;;;;;;14.58;83.49;99741.94;1773371;79;21088;-77
2022/06/03 00:07:50;;;;;;;3.95;3.65;;;;;;;14.58;83.34;99746.45;1764566;81;21065;-76
2022/06/03 00:10:49;;;;;;;4.05;3.58;;;;;;;14.55;83.45;99749.01;1767389;81;20932;-75
2022/06/03 00:13:49;;;;;;;6.10;4.67;;;;;;;14.54;83.52;99750.55;1763751;81;21487;-76
2022/06/03 00:16:58;;;;;;;6.35;5.05;;;;;;;14.51;83.40;99745.56;1768568;80;20978;-77
2022/06/03 00:19:30;;;;;;;7.08;4.30;;;;;;;14.48;83.39;99743.27;1768875;81;22265;-78
2022/06/03 00:22:21;;;;;;;5.72;5.12;;;;;;;14.45;83.30;99744.97;1772947;80;20876;-76
2022/06/03 00:25:11;;;;;;;6.80;6.10;;;;;;;14.39;83.18;99743.88;1773069;81;20971;-76
2022/06/03 00:28:14;;;;;;;12.18;7.22;;;;;;;14.36;83.21;99746.12;1750629;80;20911;-75
2022/06/03 00:30:55;;;;;;;10.65;9.58;;;;;;;14.30;83.29;99743.65;1765081;81;20900;-77
2022/06/03 00:33:42;;;;;;;16.05;10.05;;;;;;;14.29;83.48;99739.84;1773031;81;21161;-76
2022/06/03 00:36:38;;;;;;;10.53;8.98;;;;;;;14.25;83.70;99738.03;1770410;80;20970;-78
2022/06/03 00:39:25;;;;;;;10.48;7.12;;;;;;;14.23;83.78;99738.20;1768235;81;20963;-76
2022/06/03 00:42:17;;;;;;;10.65;8.03;;;;;;;14.20;83.68;99737.27;1766577;80;21066;-75
2022/06/03 00:45:33;;;;;;;11.97;8.58;;;;;;;14.13;83.32;99743.55;1766863;81;20919;-77
2022/06/03 00:48:17;;;;;;;9.68;8.10;;;;;;;14.04;83.36;99742.81;1747609;81;21768;-75
2022/06/03 00:50:58;;;;;;;9.88;7.33;;;;;;;13.97;83.47;99745.92;1750579;81;21575;-79
2022/06/03 00:53:52;;;;;;;14.18;8.58;;;;;;;13.95;83.52;99746.59;1766746;81;21490;-78
2022/06/03 00:56:59;;;;;;;10.98;8.05;;;;;;;13.93;83.49;99753.14;1767984;81;21129;-76
2022/06/03 01:00:00;;;;;;;6.17;4.77;;;;;;;13.90;83.54;99748.16;1765195;81;21042;-77
2022/06/03 01:02:48;;;;;;;4.58;4.12;;;;;;;13.83;83.13;99742.73;1780822;80;21338;-78
2022/06/03 01:05:43;;;;;;;6.65;4.55;;;;;;;13.67;82.32;99732.71;1745795;80;20990;-76
2022/06/03 01:08:18;;;;;;;6.08;5.50;;;;;;;13.55;82.00;99739.03;1737379;79;20939;-78
2022/06/03 01:11:27;;;;;;;4.92;4.42;;;;;;;13.45;82.02;99738.47;1768618;80;20942;-78
2022/06/03 01:14:04;;;;;;;;;;;;;;;13.38;81.94;99741.53;1762374;80;20926;-77
2022/06/03 01:16:36;;;;;;;6.25;2.80;;;;;;;13.24;81.53;99741.84;1779947;80;21810;-76
2022/06/03 01:19:38;;;;;;;3.92;2.52;;;;;;;13.12;81.30;99752.62;1776139;79;21485;-77
2022/06/03 01:22:42;;;;;;;2.30;2.20;;;;;;;13.00;81.31;99754.87;1788283;80;20936;-78
2022/06/03 01:25:50;;;;;;;2.00;1.90;;;;;;;12.86;81.49;99756.13;1789402;79;20927;-76
2022/06/03 01:28:45;;;;;;;1.60;1.50;;;;;;;12.76;81.87;99756.87;1783440;80;21038;-77
2022/06/03 01:31:34;;;;;;;1.87;1.77;;;;;;;12.69;82.16;99759.94;1760095;80;21894;-75
2022/06/03 01:34:08;;;;;;;1.95;1.65;;;;;;;12.65;82.51;99754.61;1779426;80;21464;-76
2022/06/03 01:37:14;;;;;;;2.00;1.90;;;;;;;12.64;82.73;99760.97;1759805;80;21484;-75
2022/06/03 01:40:37;;;;;;;1.45;1.42;;;;;;;12.61;82.73;99758.65;1773057;80;20947;-76
2022/06/03 01:43:35;;;;;;;2.20;2.10;;;;;;;12.56;82.77;99765.02;1783644;80;20958;-77
2022/06/03 01:46:25;;;;;;;2.37;2.27;;;;;;;12.50;82.75;99769.72;1759703;80;21622;-77
2022/06/03 01:49:12;;;;;;;1.25;1.22;;;;;;;12.48;83.09;99773.07;1782225;80;21005;-79
2022/06/03 01:52:08;;;;;;;1.98;1.87;;;;;;;12.47;83.44;99774.91;1775142;80;20928;-78
2022/06/03 01:54:50;;;;;;;3.35;3.05;;;;;;;12.48;83.72;99776.58;1758923;80;20970;-75
2022/06/03 01:57:52;;;;;;;3.80;3.52;;;;;;;12.52;84.04;99778.37;1760011;80;20993;-76
2022/06/03 02:00:47;;;;;;;4.08;3.72;;;;;;;12.55;84.48;99780.20;1768431;80;21379;-78
2022/06/03 02:03:28;;;;;;;4.25;3.95;;;;;;;12.60;84.90;99778.33;1789708;80;21421;-77
2022/06/03 02:06:16;;;;;;;3.87;3.58;;;;;;;12.64;85.27;99785.83;1789523;80;21001;-77
2022/06/03 02:09:09;;;;;;;4.97;3.95;;;;;;;12.70;85.60;99781.59;1789535;80;20966;-76
2022/06/03 02:12:03;;;;;;;3.30;3.02;;;;;;;12.76;85.72;99783.08;1759503;80;20962;-77
2022/06/03 02:14:46;;;;;;;3.22;2.92;;;;;;;12.81;85.80;99784.70;1759588;80;21154;-78
2022/06/03 02:17:21;;;;;;;3.83;3.52;;;;;;;12.81;85.64;99782.03;1758927;80;21013;-76
2022/06/03 02:20:24;;;;;;;3.72;3.42;;;;;;;12.82;85.74;99784.20;1767652;80;20982;-76
2022/06/03 02:23:09;;;;;;;4.08;3.77;;;;;;;12.85;85.90;99786.53;1759805;80;20907;-78
2022/06/03 02:26:06;;;;;;;4.25;3.92;;;;;;;12.87;86.06;99790.68;1759698;80;21399;-77
2022/06/03 02:32:21;;;;;;;3.62;3.33;;;;;;;12.97;86.24;99789.10;1787448;80;20087;-76
2022/06/03 02:35:42;;;;;;;3.45;3.15;;;;;;;12.98;85.93;99796.92;1765166;79;20887;-77
2022/06/03 02:38:30;;;;;;;3.95;3.65;;;;;;;12.98;85.91;99792.11;1783951;80;20994;-76
2022/06/03 02:41:38;;;;;;;5.87;3.35;;;;;;;12.98;85.54;99800.12;1771674;79;20916;-75
2022/06/03 02:44:18;;;;;;;3.72;3.42;;;;;;;13.02;85.53;99802.75;1786844;80;23773;-80
2022/06/03 02:47:07;;;;;;;3.85;3.60;;;;;;;13.10;85.37;99808.56;1789112;79;20966;-77
2022/06/03 02:50:14;;;;;;;4.42;4.12;;;;;;;13.16;85.37;99809.20;1784150;80;21532;-76
2022/06/03 02:53:21;;;;;;;4.78;4.37;;;;;;;13.26;85.51;99815.96;1780886;80;20888;-78
2022/06/03 02:56:36;;;;;;;5.42;5.00;;;;;;;13.40;85.86;99815.69;1789714;80;20895;-75
2022/06/03 02:59:32;;;;;;;4.70;4.30;;;;;;;13.55;86.05;99820.06;1775809;79;21896;-76
2022/06/03 03:02:17;;;;;;;5.13;4.73;;;;;;;13.70;85.95;99823.25;1733818;81;20950;-75
2022/06/03 03:05:29;;;;;;;6.80;5.13;;;;;;;13.84;85.60;99827.80;1788337;80;20958;-76
2022/06/03 03:08:29;;;;;;;11.30;10.28;;;;;;;13.96;85.09;99823.16;1789448;79;21545;-75
2022/06/03 03:11:17;;;;;;;16.07;14.47;;;;;;;14.12;84.65;99825.66;1743985;79;20958;-76
2022/06/03 03:14:40;;;;;;;28.05;24.55;;;;;;;14.33;84.52;99830.79;1777472;80;21708;-78
2022/06/03 03:17:27;;;;;;;9.48;8.58;;;;;;;14.55;84.00;99832.00;1789769;80;20875;-78
2022/06/03 03:20:27;;;;;;;6.90;6.15;;;;;;;14.81;83.14;99828.30;1776486;80;21555;-78
2022/06/03 03:23:33;;;;;;;8.30;5.95;;;;;;;15.07;82.48;99833.11;1789789;80;20939;-78
2022/06/03 03:26:40;;;;;;;6.50;5.90;;;;;;;15.36;81.46;99838.34;1789889;79;20947;-76
2022/06/03 03:29:20;;;;;;;5.70;5.10;;;;;;;15.68;80.50;99826.79;1787191;80;21261;-77
2022/06/03 03:32:22;;;;;;;5.17;4.78;;;;;;;15.99;79.54;99826.71;1759802;80;20953;-76
2022/06/03 03:35:25;;;;;;;4.58;4.17;;;;;;;16.38;78.86;99830.64;1784478;80;21042;-77
2022/06/03 03:38:26;;;;;;;6.03;4.70;;;;;;;17.07;77.31;99831.36;1781525;80;21595;-76
2022/06/03 03:41:10;;;;;;;13.88;12.35;;;;;;;17.82;74.92;99833.72;1769433;80;21520;-74
2022/06/03 03:44:01;;;;;;;7.08;6.40;;;;;;;18.51;72.28;99833.19;1759370;80;20914;-77
2022/06/03 03:47:08;;;;;;;17.55;5.28;;;;;;;19.17;70.36;99834.51;1760085;80;20883;-76
2022/06/03 03:50:14;;;;;;;7.03;5.00;;;;;;;19.80;67.61;99832.61;1777208;80;21043;-76
2022/06/03 03:52:55;;;;;;;7.20;5.50;;;;;;;20.40;64.72;99835.05;1781752;80;21495;-75
2022/06/03 03:55:40;;;;;;;12.40;11.20;;;;;;;21.01;62.37;99841.68;1789720;80;21040;-77
2022/06/03 03:58:29;;;;;;;8.30;7.55;;;;;;;21.52;60.56;99839.28;1787961;79;21331;-77
2022/06/03 04:01:24;;;;;;;6.08;5.50;;;;;;;22.09;58.52;99841.77;1764083;80;20931;-75
2022/06/03 04:04:21;;;;;;;4.95;4.65;;;;;;;22.62;56.74;99839.41;1762297;80;21434;-77
2022/06/03 04:06:59;;;;;;;7.00;4.83;;;;;;;23.15;55.23;99845.36;1759977;80;21600;-76
2022/06/03 04:09:51;;;;;;;4.87;4.53;;;;;;;23.73;53.32;99841.00;1782612;80;20926;-78
2022/06/03 04:12:58;;;;;;;5.83;5.22;;;;;;;24.32;51.65;99846.83;1757116;80;21144;-78
2022/06/03 04:16:13;;;;;;;4.92;4.20;;;;;;;24.97;50.24;99847.70;1757558;80;20935;-76
2022/06/03 04:19:20;;;;;;;4.95;4.62;;;;;;;25.62;48.53;99855.74;1685473;81;21469;-76
2022/06/03 04:21:56;;;;;;;4.45;4.15;;;;;;;26.33;46.09;99854.37;1777091;80;20999;-76
2022/06/03 04:24:46;;;;;;;4.50;4.10;;;;;;;26.90;44.53;99853.59;1757292;80;20962;-78
2022/06/03 04:27:42;;;;;;;4.33;4.03;;;;;;;27.35;42.78;99850.17;1779570;80;21770;-80
2022/06/03 04:30:45;;;;;;;6.97;5.90;;;;;;;27.80;41.96;99852.12;1769048;80;21409;-77
2022/06/03 04:34:00;;;;;;;9.65;7.20;;;;;;;28.31;39.93;99851.56;1758229;80;21201;-79
2022/06/03 04:37:08;;;;;;;6.37;5.78;;;;;;;28.66;38.89;99858.31;1781944;80;20967;-76
2022/06/03 04:40:17;;;;;;;4.22;3.92;;;;;;;29.12;37.63;99858.95;1784222;80;20883;-78
2022/06/03 04:43:16;;;;;;;4.83;4.17;;;;;;;29.53;36.87;99867.75;1761999;80;21779;-76
2022/06/03 04:46:23;;;;;;;4.55;4.15;;;;;;;30.06;35.72;99864.03;1756557;80;20962;-78
2022/06/03 04:49:10;;;;;;;;;;;;;;;30.61;34.49;99859.13;1785618;80;20919;-77
2022/06/03 04:51:43;;;;;;;7.17;6.12;;;;;;;31.18;33.48;99863.09;1771491;80;28574;-79
2022/06/03 04:54:39;;;;;;;8.23;6.42;;;;;;;31.59;32.47;99865.52;1756636;80;21394;-79
2022/06/03 04:57:46;;;;;;;15.68;11.60;;;;;;;31.87;31.81;99869.18;1757538;80;21121;-79
2022/06/03 05:00:53;;;;;;;11.08;9.45;;;;;;;32.15;31.46;99868.71;1759907;80;21005;-80
2022/06/03 05:04:02;;;;;;;15.38;9.53;;;;;;;32.53;30.40;99864.73;1740190;80;20955;-79
2022/06/03 05:07:01;;;;;;;12.03;9.58;;;;;;;32.84;30.09;99859.42;1761644;79;20983;-81
2022/06/03 05:10:10;;;;;;;18.60;12.30;;;;;;;33.33;29.16;99862.77;1764534;81;20987;-78
2022/06/03 05:13:08;;;;;;;14.58;11.35;;;;;;;33.83;28.52;99866.29;1756591;81;21894;-81
2022/06/03 05:15:55;;;;;;;12.98;10.32;;;;;;;33.89;27.92;99867.24;1752899;81;20994;-78
2022/06/03 05:18:42;;;;;;;19.02;13.13;;;;;;;34.30;27.51;99870.34;1747529;79;21671;-78
2022/06/03 05:21:18;;;;;;;20.60;14.75;;;;;;;34.42;26.65;99870.55;1746830;81;20928;-77
2022/06/03 05:23:56;;;;;;;18.50;13.50;;;;;;;34.38;26.72;99873.71;1760877;81;20989;-72
2022/06/03 05:27:01;;;;;;;19.23;13.32;;;;;;;34.55;26.62;99876.53;1743252;81;21234;-73
2022/06/03 05:29:39;;;;;;;13.03;10.35;;;;;;;35.03;25.97;99884.30;1743468;81;20848;-72
2022/06/03 05:32:27;;;;;;;13.18;9.80;;;;;;;35.48;25.41;99871.05;1743492;81;20883;-72
2022/06/03 05:35:36;;;;;;;12.80;9.53;;;;;;;35.92;25.34;99876.83;1710338;80;20990;-72
2022/06/03 05:38:31;;;;;;;20.65;12.63;;;;;;;36.33;24.48;99877.08;1768303;81;20994;-73
2022/06/03 05:44:32;;;;;;;28.80;19.10;;;;;;;36.75;23.98;99880.02;1773033;79;20983;-73
2022/06/03 05:47:05;;;;;;;26.68;17.10;;;;;;;36.90;23.42;99876.67;1766856;81;20915;-72
2022/06/03 05:50:19;;;;;;;22.37;15.23;;;;;;;37.18;23.20;99880.60;1773047;81;20975;-73
2022/06/03 05:52:57;;;;;;;24.05;15.10;;;;;;;37.59;22.39;99882.62;1773037;81;20978;-72
2022/06/03 05:55:51;;;;;;;18.87;13.20;;;;;;;37.58;22.16;99878.22;1773024;81;21259;-73
2022/06/03 05:58:23;;;;;;;25.35;13.75;;;;;;;37.52;22.13;99879.59;1771966;81;21513;-72
2022/06/03 06:01:25;;;;;;;21.85;14.05;;;;;;;37.47;22.24;99886.70;1765302;81;20972;-72
2022/06/03 06:04:26;;;;;;;18.00;12.25;;;;;;;37.75;22.07;99883.62;1779249;79;20856;-74
2022/06/03 06:07:05;;;;;;;18.10;11.28;;;;;;;38.15;21.85;99883.89;1789693;80;20950;-73
2022/06/03 06:09:55;;;;;;;14.98;10.30;;;;;;;38.81;21.31;99879.87;1789698;80;21153;-74
2022/06/03 06:13:04;;;;;;;15.63;10.13;;;;;;;39.04;20.79;99877.99;1789638;79;20875;-74
2022/06/03 06:16:02;;;;;;;13.48;9.43;;;;;;;39.40;20.84;99877.38;1737612;80;21065;-74
2022/06/03 06:19:10;;;;;;;12.18;8.70;;;;;;;39.87;20.18;99876.19;1758624;80;20946;-74
2022/06/03 06:22:11;;;;;;;16.70;8.00;;;;;;;40.26;19.57;99875.88;1785318;80;20969;-72
2022/06/03 06:24:55;;;;;;;12.75;8.23;;;;;;;40.47;19.02;99876.46;1789172;79;21262;-72
2022/06/03 06:27:50;;;;;;;9.88;6.95;;;;;;;40.47;18.89;99879.83;1789659;80;20939;-73
2022/06/03 06:31:15;;;;;;;15.45;9.50;;;;;;;40.55;18.75;99872.69;1756864;80;21626;-73
2022/06/03 06:34:00;;;;;;;17.73;9.18;;;;;;;40.29;19.11;99872.95;1782198;80;20891;-72
2022/06/03 06:36:48;;;;;;;18.02;10.88;;;;;;;40.74;19.23;99878.93;1789700;79;21555;-71
2022/06/03 06:39:36;;;;;;;15.68;9.85;;;;;;;41.00;18.74;99868.03;1789871;79;21669;-75
2022/06/03 06:42:21;;;;;;;8.83;7.12;;;;;;;41.20;18.97;99871.66;1789900;79;21014;-73
2022/06/03 06:45:22;;;;;;;8.23;5.87;;;;;;;41.56;18.20;99869.09;1789870;80;20978;-74
2022/06/03 06:48:42;;;;;;;11.20;8.33;;;;;;;41.93;17.69;99870.25;1786468;79;20962;-72
2022/06/03 06:51:38;;;;;;;10.48;6.62;;;;;;;42.39;17.44;99871.97;1759824;80;20978;-72
2022/06/03 06:54:25;;;;;;;15.83;8.13;;;;;;;42.92;16.89;99866.43;1779402;80;21133;-72
2022/06/03 06:57:00;;;;;;;11.97;8.00;;;;;;;43.07;16.77;99869.70;1789779;80;21017;-73
2022/06/03 06:59:32;;;;;;;8.53;7.50;;;;;;;43.17;16.79;99869.05;1789877;80;21468;-74
2022/06/03 07:02:20;;;;;;;8.68;6.12;;;;;;;43.19;16.15;99870.05;1789345;79;20855;-73
2022/06/03 07:04:57;;;;;;;9.60;7.05;;;;;;;43.02;16.39;99872.22;1779648;79;20959;-74
2022/06/03 07:07:35;;;;;;;9.98;6.80;;;;;;;43.08;16.04;99869.91;1772538;80;21174;-74
2022/06/03 07:10:07;;;;;;;7.45;5.05;;;;;;;42.44;16.39;99874.45;1773081;81;20939;-73
2022/06/03 07:12:45;;;;;;;7.37;4.85;;;;;;;42.27;16.83;99874.11;1773291;81;21480;-74
2022/06/03 07:15:23;;;;;;;9.25;5.65;;;;;;;40.85;17.13;99888.38;1773215;81;21054;-73
2022/06/03 07:21:08;;;;;;;5.50;3.85;;;;;;;41.20;17.34;99878.05;1743884;81;21164;-75
2022/06/03 07:23:49;;;;;;;4.22;3.45;;;;;;;42.09;16.77;99877.14;1753901;81;20888;-75
2022/06/03 07:26:40;;;;;;;5.35;4.33;;;;;;;42.42;16.29;99876.00;1765773;81;21513;-74
2022/06/03 07:29:22;;;;;;;6.33;4.20;;;;;;;40.98;16.84;99887.70;1773151;81;21505;-72
2022/06/03 07:31:54;;;;;;;3.80;3.50;;;;;;;39.10;17.85;99885.77;1763902;81;20904;-72
2022/06/03 07:34:44;;;;;;;4.70;3.22;;;;;;;37.24;19.11;99890.92;1773093;81;21553;-72
2022/06/03 07:37:38;;;;;;;5.20;2.50;;;;;;;37.29;18.83;99891.55;1773092;80;20956;-73
2022/06/03 07:40:44;;;;;;;2.70;1.72;;;;;;;38.59;18.08;99890.02;1773576;81;20915;-72
2022/06/03 07:43:25;;;;;;;2.62;1.80;;;;;;;40.11;15.44;99891.18;1770074;81;20848;-73
2022/06/03 07:46:06;;;;;;;3.75;2.67;;;;;;;41.31;14.43;99892.86;1773185;81;20883;-72
2022/06/03 07:48:33;;;;;;;3.35;2.80;;;;;;;42.17;14.25;99883.11;1772578;80;22259;-74
2022/06/03 07:51:31;;;;;;;4.12;3.27;;;;;;;43.18;14.00;99893.03;1773036;81;20876;-72
2022/06/03 07:54:06;;;;;;;4.20;3.70;;;;;;;43.32;14.12;99900.28;1757766;80;20988;-73
2022/06/03 07:56:37;;;;;;;4.92;3.55;;;;;;;41.39;14.65;99901.61;1743662;81;21240;-71
2022/06/03 07:59:09;;;;;;;4.92;4.22;;;;;;;39.14;16.18;99908.11;1743765;81;21074;-72
2022/06/03 08:01:41;;;;;;;5.78;4.17;;;;;;;37.18;17.83;99910.32;1743751;81;21131;-73
2022/06/03 08:04:08;;;;;;;5.42;4.22;;;;;;;36.29;19.26;99913.52;1751302;81;20928;-72
2022/06/03 08:12:16;;;;;;;7.55;4.80;;;;;;;39.46;16.58;99909.95;1764899;81;20868;-72
2022/06/03 08:14:43;;;;;;;7.85;4.20;;;;;;;40.50;15.67;99904.20;1772359;80;21541;-72
2022/06/03 08:17:09;;;;;;;5.75;4.20;;;;;;;41.39;15.33;99903.01;1773030;81;20929;-72
2022/06/03 08:19:37;;;;;;;3.52;3.10;;;;;;;42.35;14.55;99905.20;1773063;79;21482;-73
2022/06/03 08:22:08;;;;;;;5.15;3.60;;;;;;;42.67;13.86;99903.81;1773181;81;20987;-72
2022/06/03 08:24:36;;;;;;;7.55;4.20;;;;;;;42.53;13.72;99904.17;1773118;81;21184;-72
2022/06/03 08:27:15;;;;;;;5.92;4.12;;;;;;;41.72;13.59;99908.94;1773130;81;21158;-72
2022/06/03 08:29:46;;;;;;;7.42;4.25;;;;;;;39.56;15.02;99913.62;1773031;81;20978;-71
2022/06/03 08:32:20;;;;;;;5.47;3.42;;;;;;;37.28;16.95;99914.91;1773176;81;21478;-73
2022/06/03 08:34:51;;;;;;;4.58;3.08;;;;;;;35.42;18.67;99924.89;1772562;80;20986;-72
2022/06/03 08:37:25;;;;;;;2.17;1.95;;;;;;;34.27;20.69;99928.39;1773134;79;21530;-72
2022/06/03 08:39:57;;;;;;;5.28;1.77;;;;;;;34.09;20.82;99921.95;1762948;81;21225;-72
2022/06/03 08:42:44;;;;;;;2.20;1.90;;;;;;;35.22;19.88;99924.92;1773057;81;21031;-72
2022/06/03 08:45:33;;;;;;;1.55;1.45;;;;;;;36.98;18.58;99921.59;1773039;79;20948;-72
2022/06/03 08:48:13;;;;;;;1.98;1.80;;;;;;;38.70;16.54;99919.56;1773180;81;20876;-71
2022/06/03 08:51:01;;;;;;;2.47;2.27;;;;;;;38.83;16.46;99919.27;1743674;81;20892;-72
2022/06/03 08:54:12;;;;;;;2.20;1.82;;;;;;;39.34;16.01;99912.20;1767719;81;21629;-71
2022/06/03 08:56:40;;;;;;;1.85;1.47;;;;;;;39.27;15.79;99911.14;1743435;81;20935;-74
2022/06/03 08:59:23;;;;;;;1.50;1.30;;;;;;;37.45;17.64;99914.80;1743667;81;20915;-73
2022/06/03 09:02:08;;;;;;;1.57;1.37;;;;;;;35.64;19.38;99926.74;1743584;81;20932;-71
2022/06/03 09:04:42;;;;;;;1.50;1.40;;;;;;;33.82;21.13;99932.25;1744633;81;21014;-73
2022/06/03 09:07:20;;;;;;;2.70;1.50;;;;;;;32.44;22.62;99932.59;1759780;80;21425;-74
2022/06/03 09:10:11;;;;;;;4.42;1.20;;;;;;;31.47;24.40;99933.86;1759450;80;21259;-71
2022/06/03 09:13:05;;;;;;;2.20;1.25;;;;;;;32.38;24.37;99930.49;1759731;80;20938;-72
2022/06/03 09:15:43;;;;;;;1.27;1.15;;;;;;;34.59;22.06;99925.92;1743916;80;20955;-73
2022/06/03 09:18:27;;;;;;;1.80;1.60;;;;;;;36.52;20.19;99918.28;1789699;79;20923;-73
2022/06/03 09:21:05;;;;;;;2.50;1.35;;;;;;;38.13;18.35;99917.58;1789738;79;21624;-74
2022/06/03 09:23:39;;;;;;;1.10;1.10;;;;;;;38.33;17.63;99917.91;1759575;80;20947;-74
2022/06/03 09:26:20;;;;;;;1.82;1.47;;;;;;;36.85;18.54;99921.22;1759743;80;20927;-73
2022/06/03 09:28:48;;;;;;;7.33;1.75;;;;;;;35.31;19.98;99930.48;1759699;80;21611;-70
2022/06/03 09:31:14;;;;;;;2.72;1.17;;;;;;;33.69;21.25;99927.03;1760033;80;21045;-72
2022/06/03 09:33:41;;;;;;;3.08;1.20;;;;;;;32.55;22.53;99936.02;1760865;80;21134;-73
2022/06/03 09:36:15;;;;;;;2.90;1.10;;;;;;;31.64;23.63;99935.55;1759566;80;20914;-70
2022/06/03 09:39:04;;;;;;;6.65;1.45;;;;;;;31.01;24.68;99938.30;1759104;80;20927;-74
2022/06/03 09:41:35;;;;;;;1.47;1.37;;;;;;;31.27;25.19;99936.87;1789290;80;20915;-72
2022/06/03 09:44:03;;;;;;;2.33;1.10;;;;;;;33.41;22.89;99930.97;1756492;80;20871;-73
2022/06/03 09:46:32;;;;;;;2.10;1.30;;;;;;;35.30;20.54;99925.52;1759608;80;21265;-72
2022/06/03 09:48:59;;;;;;;1.07;0.85;;;;;;;36.87;18.43;99921.70;1759495;80;20883;-70
2022/06/03 09:54:34;;;;;;;0.88;0.80;;;;;;;38.25;16.86;99914.01;1784076;80;21531;-72
2022/06/03 09:57:12;;;;;;;1.17;1.00;;;;;;;38.08;17.08;99915.59;1789730;80;20871;-73
2022/06/03 09:59:42;;;;;;;1.87;0.82;;;;;;;37.47;17.94;99917.22;1789869;80;21240;-75
2022/06/03 10:02:09;;;;;;;1.45;0.95;;;;;;;36.78;18.52;99912.05;1759339;80;20931;-75
2022/06/03 10:04:36;;;;;;;0.95;0.90;;;;;;;35.98;17.93;99921.17;1759770;80;20974;-72
2022/06/03 10:07:04;;;;;;;1.20;0.90;;;;;;;35.07;18.40;99921.23;1757200;80;20930;-72
2022/06/03 10:17:58;;;;;;;3.27;1.07;;;;;;;32.05;21.75;99921.18;1757378;80;21499;-73
2022/06/03 10:20:25;;;;;;;2.15;0.98;;;;;;;31.67;22.54;99916.27;1757054;80;21015;-74
2022/06/03 10:22:54;;;;;;;1.20;0.93;;;;;;;31.35;22.71;99915.59;1757364;80;20923;-73
2022/06/03 10:25:21;;;;;;;2.25;1.00;;;;;;;30.89;23.30;99915.91;1734248;80;21257;-74
2022/06/03 10:27:47;;;;;;;3.70;1.00;;;;;;;30.42;24.06;99917.52;1787047;80;21001;-71
2022/06/03 10:30:14;;;;;;;0.93;0.90;;;;;;;29.91;24.74;99919.02;1787132;79;20946;-73
2022/06/03 10:32:41;;;;;;;3.62;0.90;;;;;;;29.60;25.15;99906.61;1787138;80;20895;-72
2022/06/03 10:35:16;;;;;;;0.85;0.85;;;;;;;29.45;26.12;99902.06;1787112;80;21010;-73
2022/06/03 10:37:53;;;;;;;1.22;0.88;;;;;;;29.43;25.48;99897.97;1787062;80;21241;-71
2022/06/03 10:40:21;;;;;;;2.12;0.90;;;;;;;29.36;25.56;99896.35;1786899;79;20931;-72
2022/06/03 10:42:51;;;;;;;1.37;1.00;;;;;;;29.33;25.23;99899.66;1787092;79;20966;-72
2022/06/03 10:45:18;;;;;;;2.72;0.95;;;;;;;29.21;24.76;99895.08;1787092;79;20985;-71
2022/06/03 10:47:46;;;;;;;1.42;1.00;;;;;;;29.06;25.17;99884.71;1786962;80;20982;-72
2022/06/03 10:50:38;;;;;;;3.90;1.10;;;;;;;28.97;25.37;99882.28;1787025;80;21621;-72
2022/06/03 11:01:55;;;;;;;;;;;;;;;28.27;27.05;99884.11;1790141;79;20848;-72
2022/06/03 11:04:37;;;;;;;4.35;1.80;;;;;;;28.18;27.03;99878.12;1786599;80;21426;-72
2022/06/03 11:07:25;;;;;;;1.52;1.10;;;;;;;28.10;27.03;99881.69;1775361;79;21442;-71
2022/06/03 11:09:59;;;;;;;0.68;0.68;;;;;;;27.96;26.53;99873.73;1767854;80;20931;-71
2022/06/03 11:12:28;;;;;;;3.72;0.93;;;;;;;27.86;26.25;99868.81;1773143;81;20987;-72
2022/06/03 11:14:56;;;;;;;1.12;1.07;;;;;;;27.77;26.37;99864.97;1773168;81;20892;-70
2022/06/03 11:17:36;;;;;;;2.05;0.78;;;;;;;27.63;26.49;99869.35;1773018;81;21261;-70
2022/06/03 11:20:21;;;;;;;1.40;0.98;;;;;;;27.51;26.69;99869.06;1773029;81;21453;-71
2022/06/03 11:22:48;;;;;;;2.67;0.93;;;;;;;27.37;27.16;99865.20;1743439;81;21548;-72
2022/06/03 11:25:27;;;;;;;1.15;1.02;;;;;;;27.20;27.72;99870.06;1751321;81;20975;-73
2022/06/03 11:28:02;;;;;;;2.22;0.88;;;;;;;27.07;28.25;99867.02;1744150;81;21493;-72
2022/06/03 11:30:50;;;;;;;0.72;0.72;;;;;;;26.98;28.35;99862.64;1757142;81;21200;-69
2022/06/03 11:33:36;;;;;;;1.00;0.78;;;;;;;26.97;27.94;99856.89;1753359;81;20924;-74
2022/06/03 11:36:17;;;;;;;2.83;0.88;;;;;;;26.94;27.75;99858.25;1767613;81;20881;-72
2022/06/03 11:38:50;;;;;;;1.22;0.90;;;;;;;26.95;27.62;99854.98;1773137;79;21489;-71
2022/06/03 11:41:25;;;;;;;1.22;1.00;;;;;;;26.90;27.18;99857.16;1772635;80;20980;-74
2022/06/03 11:44:25;;;;;;;1.62;1.52;;;;;;;26.87;27.13;99856.32;1773293;79;21136;-71
2022/06/03 11:46:56;;;;;;;1.70;1.47;;;;;;;26.87;27.21;99853.59;1769450;81;21485;-74
2022/06/03 11:49:23;;;;;;;2.45;1.37;;;;;;;26.86;27.43;99848.37;1773355;79;20923;-71
2022/06/03 11:51:50;;;;;;;0.98;0.90;;;;;;;26.80;28.22;99847.53;1773121;79;20932;-72
2022/06/03 11:54:19;;;;;;;1.07;0.98;;;;;;;26.69;28.19;99848.58;1773117;81;21744;-73
2022/06/03 11:56:45;;;;;;;4.87;1.20;;;;;;;26.56;27.78;99842.23;1773114;81;21237;-69
2022/06/03 11:59:33;;;;;;;1.55;0.80;;;;;;;26.47;28.24;99857.45;1773143;81;21394;-71
2022/06/03 12:02:38;;;;;;;1.92;0.88;;;;;;;26.40;28.65;99854.15;1743579;81;20959;-71
2022/06/03 12:05:13;;;;;;;0.98;0.78;;;;;;;26.37;29.08;99849.22;1770807;81;21167;-71
2022/06/03 12:08:05;;;;;;;1.35;0.82;;;;;;;26.38;29.13;99851.67;1789211;79;20934;-72
2022/06/03 12:10:48;;;;;;;1.22;0.75;;;;;;;26.41;28.90;99848.95;1789630;79;21053;-71
2022/06/03 12:13:30;;;;;;;0.70;0.70;;;;;;;26.40;28.70;99837.78;1789781;79;20950;-74
2022/06/03 12:16:05;;;;;;;0.90;0.90;;;;;;;26.30;28.24;99841.28;1759545;80;20938;-72
2022/06/03 12:18:38;;;;;;;0.88;0.88;;;;;;;26.10;28.24;99838.91;1781262;80;20926;-72
2022/06/03 12:21:10;;;;;;;1.55;0.93;;;;;;;25.92;28.07;99840.16;1789714;80;21512;-71
2022/06/03 12:23:43;;;;;;;1.00;0.90;;;;;;;25.74;28.06;99847.38;1769842;80;22800;-71
2022/06/03 12:26:31;;;;;;;4.80;1.00;;;;;;;25.55;28.69;99842.85;1789693;80;21606;-74
2022/06/03 12:29:17;;;;;;;3.05;1.17;;;;;;;25.43;30.25;99838.09;1789755;79;21022;-71
2022/06/03 12:31:46;;;;;;;1.80;0.98;;;;;;;25.35;30.06;99839.09;1789658;79;20982;-71
2022/06/03 12:34:23;;;;;;;1.77;0.90;;;;;;;25.27;29.88;99843.64;1789653;80;20906;-71
2022/06/03 12:36:54;;;;;;;0.90;0.90;;;;;;;25.22;30.16;99840.33;1789760;80;21938;-73
2022/06/03 12:39:58;;;;;;;1.95;0.90;;;;;;;25.18;30.26;99839.75;1789559;80;21496;-73
2022/06/03 12:42:34;;;;;;;0.70;0.70;;;;;;;25.13;29.96;99839.95;1781845;80;21587;-72
2022/06/03 12:45:12;;;;;;;3.98;1.00;;;;;;;25.12;29.71;99839.70;1789720;80;20884;-72
2022/06/03 12:47:43;;;;;;;1.45;0.93;;;;;;;25.09;29.14;99833.93;1789080;79;20954;-70
2022/06/03 12:50:35;;;;;;;1.27;0.90;;;;;;;25.03;29.76;99832.22;1789665;80;21249;-71
2022/06/03 12:53:12;;;;;;;4.80;1.40;;;;;;;24.96;29.82;99828.89;1789564;80;20914;-72
2022/06/03 12:55:39;;;;;;;0.93;0.78;;;;;;;24.91;29.77;99831.55;1788865;79;20978;-72
2022/06/03 12:58:34;;;;;;;1.40;1.20;;;;;;;24.81;29.74;99828.19;1789566;80;20950;-72
2022/06/03 13:01:02;;;;;;;1.73;1.10;;;;;;;24.75;29.57;99825.61;1789869;79;20942;-71
2022/06/03 13:03:38;;;;;;;1.50;0.93;;;;;;;24.72;29.99;99816.06;1789645;80;21554;-73
2022/06/03 13:06:08;;;;;;;1.82;1.07;;;;;;;24.73;30.17;99821.80;1789395;79;20974;-70
2022/06/03 13:09:34;;;;;;;1.10;1.00;;;;;;;24.74;30.76;99817.19;1789646;79;21469;-70
2022/06/03 13:11:32;;;;;;;1.07;0.80;;;;;;;24.76;30.95;99820.47;1786911;80;20883;-72
2022/06/03 13:14:02;;;;;;;1.22;1.12;;;;;;;24.76;30.80;99819.11;1789139;80;20891;-72
2022/06/03 13:16:37;;;;;;;1.02;0.90;;;;;;;24.75;30.85;99814.73;1789672;80;21250;-73
2022/06/03 13:19:27;;;;;;;2.83;0.90;;;;;;;24.75;30.67;99816.09;1789745;79;21010;-72
2022/06/03 13:22:03;;;;;;;3.05;1.00;;;;;;;24.77;30.69;99822.12;1789938;80;21026;-69
2022/06/03 13:24:32;;;;;;;1.80;1.10;;;;;;;24.80;30.47;99813.46;1789718;80;20923;-73
2022/06/03 13:27:24;;;;;;;0.85;0.80;;;;;;;24.76;30.16;99810.41;1789660;80;20919;-73
2022/06/03 13:29:57;;;;;;;2.72;1.05;;;;;;;24.71;30.90;99813.61;1779567;80;21998;-71
2022/06/03 13:32:52;;;;;;;2.05;1.60;;;;;;;24.72;31.16;99811.16;1759671;80;21547;-72
2022/06/03 13:35:23;;;;;;;2.67;0.90;;;;;;;24.76;30.87;99809.59;1759628;80;20987;-73